sensor_id;sensor_type;location;lat;lon;timestamp;pressure;altitude;pressure_sealevel;temperature;humidity
82395;BME280;72031;51.786;4.662;2023-09-18T00:00:43;100672.81;;;20.40;81.29
82395;BME280;72031;51.786;4.662;2023-09-18T00:03:09;100672.66;;;20.33;80.84
82395;BME280;72031;51.786;4.662;2023-09-18T00:05:35;100672.84;;;20.32;81.21
82395;BME280;72031;51.786;4.662;2023-09-18T00:08:00;100672.31;;;20.36;80.46
82395;BME280;72031;51.786;4.662;2023-09-18T00:10:27;100670.28;;;20.38;80.79
82395;BME280;72031;51.786;4.662;2023-09-18T00:12:54;100659.25;;;20.40;80.82
82395;BME280;72031;51.786;4.662;2023-09-18T00:15:20;100663.00;;;20.39;80.71
82395;BME280;72031;51.786;4.662;2023-09-18T00:17:46;100655.88;;;20.38;80.76
82395;BME280;72031;51.786;4.662;2023-09-18T00:20:12;100651.47;;;20.37;80.46
82395;BME280;72031;51.786;4.662;2023-09-18T00:22:39;100643.53;;;20.35;80.60
82395;BME280;72031;51.786;4.662;2023-09-18T00:25:05;100647.75;;;20.38;81.07
82395;BME280;72031;51.786;4.662;2023-09-18T00:27:30;100638.94;;;20.36;81.18
82395;BME280;72031;51.786;4.662;2023-09-18T00:29:57;100635.22;;;20.37;80.75
82395;BME280;72031;51.786;4.662;2023-09-18T00:32:23;100619.63;;;20.39;80.90
82395;BME280;72031;51.786;4.662;2023-09-18T00:34:48;100618.13;;;20.36;80.83
82395;BME280;72031;51.786;4.662;2023-09-18T00:37:14;100599.31;;;20.35;80.39
82395;BME280;72031;51.786;4.662;2023-09-18T00:39:40;100588.47;;;20.35;80.52
82395;BME280;72031;51.786;4.662;2023-09-18T00:42:06;100580.34;;;20.35;80.83
82395;BME280;72031;51.786;4.662;2023-09-18T00:44:31;100569.66;;;20.33;80.94
82395;BME280;72031;51.786;4.662;2023-09-18T00:46:57;100562.72;;;20.31;80.51
82395;BME280;72031;51.786;4.662;2023-09-18T00:49:24;100552.56;;;20.33;80.75
82395;BME280;72031;51.786;4.662;2023-09-18T00:51:50;100554.22;;;20.34;80.90
82395;BME280;72031;51.786;4.662;2023-09-18T00:54:19;100549.69;;;20.26;81.17
82395;BME280;72031;51.786;4.662;2023-09-18T00:56:46;100543.38;;;20.34;81.08
82395;BME280;72031;51.786;4.662;2023-09-18T00:59:13;100533.63;;;20.24;81.23
82395;BME280;72031;51.786;4.662;2023-09-18T01:01:42;100538.72;;;20.28;81.55
82395;BME280;72031;51.786;4.662;2023-09-18T01:04:08;100537.31;;;20.32;80.97
82395;BME280;72031;51.786;4.662;2023-09-18T01:06:33;100549.66;;;20.34;80.87
82395;BME280;72031;51.786;4.662;2023-09-18T01:08:59;100545.09;;;20.35;80.82
82395;BME280;72031;51.786;4.662;2023-09-18T01:11:36;100543.38;;;20.34;80.83
82395;BME280;72031;51.786;4.662;2023-09-18T01:14:19;100539.72;;;20.27;81.15
82395;BME280;72031;51.786;4.662;2023-09-18T01:16:58;100544.81;;;20.21;81.21
82395;BME280;72031;51.786;4.662;2023-09-18T01:22:06;100549.53;;;20.28;81.34
82395;BME280;72031;51.786;4.662;2023-09-18T01:24:33;100540.25;;;20.22;81.93
82395;BME280;72031;51.786;4.662;2023-09-18T01:26:59;100537.72;;;20.20;81.45
82395;BME280;72031;51.786;4.662;2023-09-18T01:29:24;100532.31;;;20.20;81.70
82395;BME280;72031;51.786;4.662;2023-09-18T01:31:50;100520.25;;;20.23;81.59
82395;BME280;72031;51.786;4.662;2023-09-18T01:34:19;100512.31;;;20.21;81.42
82395;BME280;72031;51.786;4.662;2023-09-18T01:36:46;100509.78;;;20.20;81.79
82395;BME280;72031;51.786;4.662;2023-09-18T01:39:12;100514.00;;;20.22;81.60
82395;BME280;72031;51.786;4.662;2023-09-18T01:41:39;100509.91;;;20.27;80.96
82395;BME280;72031;51.786;4.662;2023-09-18T01:44:06;100520.03;;;20.33;80.56
82395;BME280;72031;51.786;4.662;2023-09-18T01:46:34;100531.00;;;20.39;81.36
82395;BME280;72031;51.786;4.662;2023-09-18T01:49:03;100531.88;;;20.32;81.42
82395;BME280;72031;51.786;4.662;2023-09-18T01:51:29;100532.91;;;20.31;81.50
82395;BME280;72031;51.786;4.662;2023-09-18T01:53:55;100529.19;;;20.32;81.79
82395;BME280;72031;51.786;4.662;2023-09-18T01:56:21;100530.72;;;20.26;81.86
82395;BME280;72031;51.786;4.662;2023-09-18T01:58:47;100536.31;;;20.24;81.85
82395;BME280;72031;51.786;4.662;2023-09-18T02:01:13;100547.00;;;20.26;81.86
82395;BME280;72031;51.786;4.662;2023-09-18T02:03:38;100552.25;;;20.28;82.09
82395;BME280;72031;51.786;4.662;2023-09-18T02:06:09;100551.09;;;20.22;82.21
82395;BME280;72031;51.786;4.662;2023-09-18T02:08:35;100560.44;;;20.19;82.15
82395;BME280;72031;51.786;4.662;2023-09-18T02:11:00;100546.03;;;20.19;82.23
82395;BME280;72031;51.786;4.662;2023-09-18T02:13:26;100539.41;;;20.21;82.49
82395;BME280;72031;51.786;4.662;2023-09-18T02:15:52;100540.22;;;20.30;82.24
82395;BME280;72031;51.786;4.662;2023-09-18T02:18:18;100541.56;;;20.26;82.38
82395;BME280;72031;51.786;4.662;2023-09-18T02:20:44;100542.47;;;20.18;82.37
82395;BME280;72031;51.786;4.662;2023-09-18T02:23:14;100532.78;;;20.24;82.20
82395;BME280;72031;51.786;4.662;2023-09-18T02:25:39;100537.88;;;20.27;82.02
82395;BME280;72031;51.786;4.662;2023-09-18T02:28:08;100519.41;;;20.22;82.74
82395;BME280;72031;51.786;4.662;2023-09-18T02:30:34;100493.94;;;20.32;82.33
82395;BME280;72031;51.786;4.662;2023-09-18T02:33:00;100483.66;;;20.27;82.11
82395;BME280;72031;51.786;4.662;2023-09-18T02:35:28;100473.94;;;20.33;81.83
82395;BME280;72031;51.786;4.662;2023-09-18T02:37:54;100456.56;;;20.27;82.13
82395;BME280;72031;51.786;4.662;2023-09-18T02:40:19;100437.25;;;20.22;81.75
82395;BME280;72031;51.786;4.662;2023-09-18T02:42:45;100438.25;;;20.29;82.15
82395;BME280;72031;51.786;4.662;2023-09-18T02:45:11;100448.63;;;20.17;82.32
82395;BME280;72031;51.786;4.662;2023-09-18T02:47:36;100447.38;;;20.05;83.46
82395;BME280;72031;51.786;4.662;2023-09-18T02:50:06;100435.69;;;20.05;83.00
82395;BME280;72031;51.786;4.662;2023-09-18T02:52:32;100425.69;;;20.05;83.38
82395;BME280;72031;51.786;4.662;2023-09-18T02:54:57;100419.56;;;20.11;82.93
82395;BME280;72031;51.786;4.662;2023-09-18T02:57:23;100432.03;;;20.20;83.02
82395;BME280;72031;51.786;4.662;2023-09-18T02:59:48;100431.94;;;20.06;83.95
82395;BME280;72031;51.786;4.662;2023-09-18T03:02:14;100447.16;;;19.76;85.04
82395;BME280;72031;51.786;4.662;2023-09-18T03:04:39;100465.16;;;19.68;85.95
82395;BME280;72031;51.786;4.662;2023-09-18T03:07:05;100482.44;;;19.67;86.44
82395;BME280;72031;51.786;4.662;2023-09-18T03:09:30;100479.03;;;19.65;86.57
82395;BME280;72031;51.786;4.662;2023-09-18T03:11:56;100468.53;;;19.71;86.48
82395;BME280;72031;51.786;4.662;2023-09-18T03:14:21;100467.66;;;19.78;86.88
82395;BME280;72031;51.786;4.662;2023-09-18T03:16:47;100466.47;;;19.73;87.08
82395;BME280;72031;51.786;4.662;2023-09-18T03:19:12;100454.63;;;19.74;87.55
82395;BME280;72031;51.786;4.662;2023-09-18T03:21:38;100460.38;;;19.79;87.68
82395;BME280;72031;51.786;4.662;2023-09-18T03:24:03;100461.69;;;19.83;87.77
82395;BME280;72031;51.786;4.662;2023-09-18T03:26:29;100432.53;;;19.93;88.55
82395;BME280;72031;51.786;4.662;2023-09-18T03:28:55;100421.72;;;19.93;88.32
82395;BME280;72031;51.786;4.662;2023-09-18T03:31:20;100405.03;;;20.04;88.15
82395;BME280;72031;51.786;4.662;2023-09-18T03:33:45;100416.53;;;20.06;87.54
82395;BME280;72031;51.786;4.662;2023-09-18T03:36:11;100424.91;;;19.96;88.58
82395;BME280;72031;51.786;4.662;2023-09-18T03:38:37;100444.56;;;19.90;88.65
82395;BME280;72031;51.786;4.662;2023-09-18T03:41:02;100452.72;;;19.82;89.61
82395;BME280;72031;51.786;4.662;2023-09-18T03:43:28;100437.72;;;19.72;89.72
82395;BME280;72031;51.786;4.662;2023-09-18T03:45:53;100434.66;;;19.75;89.84
82395;BME280;72031;51.786;4.662;2023-09-18T03:48:19;100426.84;;;19.80;89.57
82395;BME280;72031;51.786;4.662;2023-09-18T03:50:47;100427.31;;;19.83;89.28
82395;BME280;72031;51.786;4.662;2023-09-18T03:53:12;100428.72;;;19.79;89.02
82395;BME280;72031;51.786;4.662;2023-09-18T03:55:38;100422.88;;;19.90;88.45
82395;BME280;72031;51.786;4.662;2023-09-18T03:58:04;100408.41;;;20.06;87.32
82395;BME280;72031;51.786;4.662;2023-09-18T04:00:30;100390.22;;;20.15;87.15
82395;BME280;72031;51.786;4.662;2023-09-18T04:02:55;100386.25;;;20.25;86.73
82395;BME280;72031;51.786;4.662;2023-09-18T04:05:21;100387.59;;;20.30;86.33
82395;BME280;72031;51.786;4.662;2023-09-18T04:07:47;100378.81;;;20.28;86.34
82395;BME280;72031;51.786;4.662;2023-09-18T04:10:13;100388.63;;;20.29;86.09
82395;BME280;72031;51.786;4.662;2023-09-18T04:12:44;100380.81;;;20.25;86.01
82395;BME280;72031;51.786;4.662;2023-09-18T04:15:14;100376.09;;;20.28;86.05
82395;BME280;72031;51.786;4.662;2023-09-18T04:17:39;100381.00;;;20.24;85.88
82395;BME280;72031;51.786;4.662;2023-09-18T04:20:05;100380.75;;;20.34;85.32
82395;BME280;72031;51.786;4.662;2023-09-18T04:22:31;100379.19;;;20.16;86.19
82395;BME280;72031;51.786;4.662;2023-09-18T04:24:56;100385.97;;;20.20;86.55
82395;BME280;72031;51.786;4.662;2023-09-18T04:27:22;100385.38;;;20.10;86.52
82395;BME280;72031;51.786;4.662;2023-09-18T04:29:47;100400.66;;;20.03;86.60
82395;BME280;72031;51.786;4.662;2023-09-18T04:32:13;100396.66;;;19.91;87.67
82395;BME280;72031;51.786;4.662;2023-09-18T04:34:38;100399.06;;;19.86;87.68
82395;BME280;72031;51.786;4.662;2023-09-18T04:37:04;100386.28;;;19.72;88.62
82395;BME280;72031;51.786;4.662;2023-09-18T04:39:30;100379.84;;;19.73;88.16
82395;BME280;72031;51.786;4.662;2023-09-18T04:41:55;100376.28;;;19.72;88.23
82395;BME280;72031;51.786;4.662;2023-09-18T04:44:21;100377.34;;;19.63;89.22
82395;BME280;72031;51.786;4.662;2023-09-18T04:46:46;100385.44;;;19.71;88.66
82395;BME280;72031;51.786;4.662;2023-09-18T04:49:12;100374.13;;;19.67;88.51
82395;BME280;72031;51.786;4.662;2023-09-18T04:51:38;100368.72;;;19.67;88.74
82395;BME280;72031;51.786;4.662;2023-09-18T04:54:07;100369.19;;;19.71;88.89
82395;BME280;72031;51.786;4.662;2023-09-18T04:56:32;100365.31;;;19.65;89.00
82395;BME280;72031;51.786;4.662;2023-09-18T04:58:58;100350.88;;;19.73;88.37
82395;BME280;72031;51.786;4.662;2023-09-18T05:01:23;100336.94;;;19.61;88.61
82395;BME280;72031;51.786;4.662;2023-09-18T05:03:50;100342.00;;;19.56;88.33
82395;BME280;72031;51.786;4.662;2023-09-18T05:06:16;100329.81;;;19.60;88.37
82395;BME280;72031;51.786;4.662;2023-09-18T05:08:43;100329.66;;;19.62;87.45
82395;BME280;72031;51.786;4.662;2023-09-18T05:11:09;100321.34;;;19.55;86.04
82395;BME280;72031;51.786;4.662;2023-09-18T05:13:34;100333.91;;;19.56;86.27
82395;BME280;72031;51.786;4.662;2023-09-18T05:16:00;100327.97;;;19.53;85.95
82395;BME280;72031;51.786;4.662;2023-09-18T05:18:26;100333.22;;;19.54;84.51
82395;BME280;72031;51.786;4.662;2023-09-18T05:20:52;100340.34;;;19.47;85.03
82395;BME280;72031;51.786;4.662;2023-09-18T05:23:17;100341.88;;;19.41;85.69
82395;BME280;72031;51.786;4.662;2023-09-18T05:25:43;100329.88;;;19.44;84.94
82395;BME280;72031;51.786;4.662;2023-09-18T05:28:09;100334.47;;;19.44;84.85
82395;BME280;72031;51.786;4.662;2023-09-18T05:30:35;100337.31;;;19.42;86.05
82395;BME280;72031;51.786;4.662;2023-09-18T05:33:04;100345.78;;;19.39;85.73
82395;BME280;72031;51.786;4.662;2023-09-18T05:35:35;100332.41;;;19.46;84.76
82395;BME280;72031;51.786;4.662;2023-09-18T05:38:04;100336.00;;;19.38;85.91
82395;BME280;72031;51.786;4.662;2023-09-18T05:40:30;100315.66;;;19.42;85.73
82395;BME280;72031;51.786;4.662;2023-09-18T05:42:56;100323.13;;;19.40;85.28
82395;BME280;72031;51.786;4.662;2023-09-18T05:45:23;100323.50;;;19.37;86.30
82395;BME280;72031;51.786;4.662;2023-09-18T05:47:49;100318.91;;;19.37;86.50
82395;BME280;72031;51.786;4.662;2023-09-18T05:50:15;100321.63;;;19.37;86.19
82395;BME280;72031;51.786;4.662;2023-09-18T05:52:51;100325.53;;;19.35;86.97
82395;BME280;72031;51.786;4.662;2023-09-18T05:55:17;100325.69;;;19.33;86.71
82395;BME280;72031;51.786;4.662;2023-09-18T05:57:42;100331.66;;;19.29;87.26
82395;BME280;72031;51.786;4.662;2023-09-18T06:00:08;100332.84;;;19.26;86.85
82395;BME280;72031;51.786;4.662;2023-09-18T06:02:38;100335.69;;;19.25;87.25
82395;BME280;72031;51.786;4.662;2023-09-18T06:05:04;100341.84;;;19.19;87.47
82395;BME280;72031;51.786;4.662;2023-09-18T06:07:30;100347.25;;;19.19;87.42
82395;BME280;72031;51.786;4.662;2023-09-18T06:09:57;100344.53;;;19.19;87.63
82395;BME280;72031;51.786;4.662;2023-09-18T06:12:23;100350.97;;;19.18;87.41
82395;BME280;72031;51.786;4.662;2023-09-18T06:14:49;100353.00;;;19.16;87.43
82395;BME280;72031;51.786;4.662;2023-09-18T06:17:16;100356.91;;;19.13;87.26
82395;BME280;72031;51.786;4.662;2023-09-18T06:19:42;100340.34;;;19.08;87.06
82395;BME280;72031;51.786;4.662;2023-09-18T06:22:08;100358.13;;;19.02;86.96
82395;BME280;72031;51.786;4.662;2023-09-18T06:24:34;100351.88;;;19.02;86.36
82395;BME280;72031;51.786;4.662;2023-09-18T06:26:59;100362.88;;;19.00;86.73
82395;BME280;72031;51.786;4.662;2023-09-18T06:29:25;100368.09;;;19.02;86.88
82395;BME280;72031;51.786;4.662;2023-09-18T06:31:50;100371.81;;;19.01;86.78
82395;BME280;72031;51.786;4.662;2023-09-18T06:34:16;100362.19;;;18.98;86.74
82395;BME280;72031;51.786;4.662;2023-09-18T06:36:42;100379.44;;;18.97;86.98
82395;BME280;72031;51.786;4.662;2023-09-18T06:39:07;100366.25;;;18.94;86.09
82395;BME280;72031;51.786;4.662;2023-09-18T06:41:33;100367.94;;;18.95;86.19
82395;BME280;72031;51.786;4.662;2023-09-18T06:43:59;100374.69;;;18.91;86.91
82395;BME280;72031;51.786;4.662;2023-09-18T06:46:28;100375.72;;;18.90;86.02
82395;BME280;72031;51.786;4.662;2023-09-18T06:48:53;100371.84;;;18.93;86.03
82395;BME280;72031;51.786;4.662;2023-09-18T06:51:19;100376.75;;;18.89;85.82
82395;BME280;72031;51.786;4.662;2023-09-18T06:53:44;100374.03;;;18.89;85.53
82395;BME280;72031;51.786;4.662;2023-09-18T06:56:10;100381.13;;;18.90;85.99
82395;BME280;72031;51.786;4.662;2023-09-18T06:58:36;100376.41;;;18.92;86.46
82395;BME280;72031;51.786;4.662;2023-09-18T07:01:02;100381.31;;;18.89;86.08
82395;BME280;72031;51.786;4.662;2023-09-18T07:03:28;100373.34;;;18.95;86.50
82395;BME280;72031;51.786;4.662;2023-09-18T07:05:54;100382.97;;;18.98;84.99
82395;BME280;72031;51.786;4.662;2023-09-18T07:08:19;100381.94;;;18.99;85.62
82395;BME280;72031;51.786;4.662;2023-09-18T07:10:51;100374.66;;;19.07;85.39
82395;BME280;72031;51.786;4.662;2023-09-18T07:13:16;100377.03;;;19.10;85.59
82395;BME280;72031;51.786;4.662;2023-09-18T07:15:42;100372.94;;;19.15;84.98
82395;BME280;72031;51.786;4.662;2023-09-18T07:18:09;100376.81;;;19.20;85.29
82395;BME280;72031;51.786;4.662;2023-09-18T07:20:40;100383.44;;;19.18;84.09
82395;BME280;72031;51.786;4.662;2023-09-18T07:23:05;100387.66;;;19.20;84.84
82395;BME280;72031;51.786;4.662;2023-09-18T07:25:31;100389.16;;;19.23;84.44
82395;BME280;72031;51.786;4.662;2023-09-18T07:27:56;100388.50;;;19.21;84.63
82395;BME280;72031;51.786;4.662;2023-09-18T07:30:22;100390.84;;;19.24;85.14
82395;BME280;72031;51.786;4.662;2023-09-18T07:32:55;100386.81;;;19.20;84.57
82395;BME280;72031;51.786;4.662;2023-09-18T07:35:26;100402.34;;;19.26;83.67
82395;BME280;72031;51.786;4.662;2023-09-18T07:37:52;100402.53;;;19.16;84.97
82395;BME280;72031;51.786;4.662;2023-09-18T07:40:17;100397.78;;;19.26;83.45
82395;BME280;72031;51.786;4.662;2023-09-18T07:42:43;100402.69;;;19.23;84.03
82395;BME280;72031;51.786;4.662;2023-09-18T07:45:09;100413.50;;;19.23;84.02
82395;BME280;72031;51.786;4.662;2023-09-18T07:47:35;100417.06;;;19.23;84.38
82395;BME280;72031;51.786;4.662;2023-09-18T07:50:01;100422.28;;;19.25;84.22
82395;BME280;72031;51.786;4.662;2023-09-18T07:52:27;100425.72;;;19.10;84.97
82395;BME280;72031;51.786;4.662;2023-09-18T07:54:52;100430.41;;;19.17;85.06
82395;BME280;72031;51.786;4.662;2023-09-18T07:57:18;100428.91;;;19.14;85.25
82395;BME280;72031;51.786;4.662;2023-09-18T07:59:44;100434.84;;;19.18;84.34
82395;BME280;72031;51.786;4.662;2023-09-18T08:02:11;100432.97;;;19.18;83.37
82395;BME280;72031;51.786;4.662;2023-09-18T08:04:37;100428.25;;;19.12;84.41
82395;BME280;72031;51.786;4.662;2023-09-18T08:07:03;100434.03;;;19.09;83.61
82395;BME280;72031;51.786;4.662;2023-09-18T08:09:31;100437.03;;;19.14;84.04
82395;BME280;72031;51.786;4.662;2023-09-18T08:11:57;100441.75;;;19.20;84.06
82395;BME280;72031;51.786;4.662;2023-09-18T08:14:22;100439.88;;;19.29;84.38
82395;BME280;72031;51.786;4.662;2023-09-18T08:16:48;100446.94;;;19.38;83.37
82395;BME280;72031;51.786;4.662;2023-09-18T08:19:16;100438.63;;;19.48;83.89
82395;BME280;72031;51.786;4.662;2023-09-18T08:21:45;100424.91;;;19.57;83.38
82395;BME280;72031;51.786;4.662;2023-09-18T08:24:10;100431.91;;;19.83;81.67
82395;BME280;72031;51.786;4.662;2023-09-18T08:26:35;100426.72;;;20.04;81.89
82395;BME280;72031;51.786;4.662;2023-09-18T08:29:02;100419.25;;;20.06;80.70
82395;BME280;72031;51.786;4.662;2023-09-18T08:31:27;100429.31;;;20.20;78.99
82395;BME280;72031;51.786;4.662;2023-09-18T08:33:53;100430.88;;;20.15;81.69
82395;BME280;72031;51.786;4.662;2023-09-18T08:36:18;100443.91;;;19.88;79.62
82395;BME280;72031;51.786;4.662;2023-09-18T08:38:44;100443.53;;;19.60;80.60
82395;BME280;72031;51.786;4.662;2023-09-18T08:41:12;100448.66;;;19.31;81.00
82395;BME280;72031;51.786;4.662;2023-09-18T08:43:42;100458.81;;;19.29;81.77
82395;BME280;72031;51.786;4.662;2023-09-18T08:46:09;100462.53;;;19.28;81.24
82395;BME280;72031;51.786;4.662;2023-09-18T08:48:35;100460.00;;;19.34;80.86
82395;BME280;72031;51.786;4.662;2023-09-18T08:51:03;100464.84;;;19.47;80.30
82395;BME280;72031;51.786;4.662;2023-09-18T08:53:31;100466.69;;;19.63;79.54
82395;BME280;72031;51.786;4.662;2023-09-18T08:55:58;100467.34;;;19.65;80.40
82395;BME280;72031;51.786;4.662;2023-09-18T08:58:28;100481.06;;;19.63;80.33
82395;BME280;72031;51.786;4.662;2023-09-18T09:00:53;100482.91;;;19.71;80.08
82395;BME280;72031;51.786;4.662;2023-09-18T09:03:19;100482.69;;;19.81;79.54
82395;BME280;72031;51.786;4.662;2023-09-18T09:05:44;100493.88;;;19.78;79.27
82395;BME280;72031;51.786;4.662;2023-09-18T09:08:10;100495.13;;;19.59;79.15
82395;BME280;72031;51.786;4.662;2023-09-18T09:10:35;100502.75;;;19.47;80.00
82395;BME280;72031;51.786;4.662;2023-09-18T09:13:01;100498.56;;;19.36;80.40
82395;BME280;72031;51.786;4.662;2023-09-18T09:15:44;100491.97;;;19.31;81.02
82395;BME280;72031;51.786;4.662;2023-09-18T09:18:14;100493.81;;;19.38;79.80
82395;BME280;72031;51.786;4.662;2023-09-18T09:23:19;100509.19;;;19.38;79.03
82395;BME280;72031;51.786;4.662;2023-09-18T09:25:44;100496.88;;;19.35;79.80
82395;BME280;72031;51.786;4.662;2023-09-18T09:28:10;100511.56;;;19.33;79.85
82395;BME280;72031;51.786;4.662;2023-09-18T09:30:36;100510.88;;;19.39;80.65
82395;BME280;72031;51.786;4.662;2023-09-18T09:33:03;100516.47;;;19.46;79.81
82395;BME280;72031;51.786;4.662;2023-09-18T09:35:31;100520.38;;;19.35;80.42
82395;BME280;72031;51.786;4.662;2023-09-18T09:38:17;100517.16;;;19.31;80.52
82395;BME280;72031;51.786;4.662;2023-09-18T09:40:45;100523.25;;;19.25;80.60
82395;BME280;72031;51.786;4.662;2023-09-18T09:43:12;100515.66;;;19.29;80.37
82395;BME280;72031;51.786;4.662;2023-09-18T09:45:41;100519.00;;;19.31;79.99
82395;BME280;72031;51.786;4.662;2023-09-18T09:48:07;100513.28;;;19.26;81.15
82395;BME280;72031;51.786;4.662;2023-09-18T09:50:44;100515.66;;;19.29;80.76
82395;BME280;72031;51.786;4.662;2023-09-18T09:53:12;100518.34;;;19.37;80.56
82395;BME280;72031;51.786;4.662;2023-09-18T09:55:40;100517.31;;;19.46;80.51
82395;BME280;72031;51.786;4.662;2023-09-18T09:58:07;100517.28;;;19.54;79.35
82395;BME280;72031;51.786;4.662;2023-09-18T10:00:38;100522.19;;;19.59;78.95
82395;BME280;72031;51.786;4.662;2023-09-18T10:03:16;100520.25;;;19.84;78.22
82395;BME280;72031;51.786;4.662;2023-09-18T10:05:45;100512.44;;;20.28;76.77
82395;BME280;72031;51.786;4.662;2023-09-18T10:08:14;100512.66;;;20.18;76.34
82395;BME280;72031;51.786;4.662;2023-09-18T10:10:52;100509.97;;;20.18;76.79
82395;BME280;72031;51.786;4.662;2023-09-18T10:13:23;100510.28;;;20.15;75.50
82395;BME280;72031;51.786;4.662;2023-09-18T10:15:53;100516.47;;;20.01;76.18
82395;BME280;72031;51.786;4.662;2023-09-18T10:18:51;100517.47;;;20.00;75.97
82395;BME280;72031;51.786;4.662;2023-09-18T10:21:25;100511.06;;;20.01;76.47
82395;BME280;72031;51.786;4.662;2023-09-18T10:24:24;100509.28;;;20.16;77.00
82395;BME280;72031;51.786;4.662;2023-09-18T10:26:55;100507.72;;;20.22;77.28
82395;BME280;72031;51.786;4.662;2023-09-18T10:29:22;100507.88;;;20.29;76.72
82395;BME280;72031;51.786;4.662;2023-09-18T10:31:51;100509.78;;;20.43;76.56
82395;BME280;72031;51.786;4.662;2023-09-18T10:34:18;100508.28;;;20.71;74.62
82395;BME280;72031;51.786;4.662;2023-09-18T10:36:47;100505.50;;;20.79;74.08
82395;BME280;72031;51.786;4.662;2023-09-18T10:39:13;100498.75;;;20.75;73.10
82395;BME280;72031;51.786;4.662;2023-09-18T10:41:47;100509.84;;;20.66;74.55
82395;BME280;72031;51.786;4.662;2023-09-18T10:44:14;100507.00;;;20.59;73.75
82395;BME280;72031;51.786;4.662;2023-09-18T10:46:41;100513.75;;;20.63;73.58
82395;BME280;72031;51.786;4.662;2023-09-18T10:49:06;100509.25;;;20.56;73.49
82395;BME280;72031;51.786;4.662;2023-09-18T10:51:32;100514.25;;;20.36;74.66
82395;BME280;72031;51.786;4.662;2023-09-18T10:54:03;100512.59;;;20.35;73.28
82395;BME280;72031;51.786;4.662;2023-09-18T10:56:30;100502.00;;;20.48;73.67
82395;BME280;72031;51.786;4.662;2023-09-18T10:58:58;100499.78;;;20.51;74.21
82395;BME280;72031;51.786;4.662;2023-09-18T11:01:24;100493.94;;;20.63;73.13
82395;BME280;72031;51.786;4.662;2023-09-18T11:03:53;100501.41;;;20.61;70.86
82395;BME280;72031;51.786;4.662;2023-09-18T11:06:22;100497.94;;;20.52;71.86
82395;BME280;72031;51.786;4.662;2023-09-18T11:08:55;100486.59;;;20.71;71.57
82395;BME280;72031;51.786;4.662;2023-09-18T11:11:26;100496.59;;;20.71;71.31
82395;BME280;72031;51.786;4.662;2023-09-18T11:13:56;100501.00;;;20.72;71.19
82395;BME280;72031;51.786;4.662;2023-09-18T11:19:07;100498.16;;;20.65;71.14
82395;BME280;72031;51.786;4.662;2023-09-18T11:21:34;100504.66;;;20.79;71.28
82395;BME280;72031;51.786;4.662;2023-09-18T11:24:03;100499.44;;;20.77;70.41
82395;BME280;72031;51.786;4.662;2023-09-18T11:26:34;100490.31;;;20.70;70.78
82395;BME280;72031;51.786;4.662;2023-09-18T11:29:04;100494.28;;;20.83;72.63
82395;BME280;72031;51.786;4.662;2023-09-18T11:31:49;100491.66;;;21.12;71.48
82395;BME280;72031;51.786;4.662;2023-09-18T11:34:31;100506.06;;;21.13;71.06
82395;BME280;72031;51.786;4.662;2023-09-18T11:36:58;100502.06;;;21.23;70.71
82395;BME280;72031;51.786;4.662;2023-09-18T11:39:44;100496.63;;;21.23;70.33
82395;BME280;72031;51.786;4.662;2023-09-18T11:42:20;100497.09;;;21.12;70.16
82395;BME280;72031;51.786;4.662;2023-09-18T11:44:49;100488.34;;;21.02;69.60
82395;BME280;72031;51.786;4.662;2023-09-18T11:47:20;100489.88;;;20.82;70.74
82395;BME280;72031;51.786;4.662;2023-09-18T11:52:25;100490.19;;;20.87;70.92
82395;BME280;72031;51.786;4.662;2023-09-18T11:54:52;100485.63;;;21.02;69.55
82395;BME280;72031;51.786;4.662;2023-09-18T11:57:18;100490.59;;;20.98;69.19
82395;BME280;72031;51.786;4.662;2023-09-18T11:59:48;100489.56;;;20.99;70.30
82395;BME280;72031;51.786;4.662;2023-09-18T12:02:27;100487.44;;;21.09;67.90
82395;BME280;72031;51.786;4.662;2023-09-18T12:04:56;100484.97;;;21.00;69.23
82395;BME280;72031;51.786;4.662;2023-09-18T12:07:23;100488.34;;;21.02;68.71
82395;BME280;72031;51.786;4.662;2023-09-18T12:09:50;100475.56;;;21.25;68.16
82395;BME280;72031;51.786;4.662;2023-09-18T12:12:16;100474.25;;;21.21;69.04
82395;BME280;72031;51.786;4.662;2023-09-18T12:14:43;100473.75;;;21.41;68.76
82395;BME280;72031;51.786;4.662;2023-09-18T12:17:14;100470.47;;;21.30;68.27
82395;BME280;72031;51.786;4.662;2023-09-18T12:19:50;100460.56;;;21.38;68.68
82395;BME280;72031;51.786;4.662;2023-09-18T12:22:31;100464.19;;;21.74;67.97
82395;BME280;72031;51.786;4.662;2023-09-18T12:25:09;100466.59;;;21.84;68.12
82395;BME280;72031;51.786;4.662;2023-09-18T12:27:36;100459.78;;;21.73;65.59
82395;BME280;72031;51.786;4.662;2023-09-18T12:30:03;100465.59;;;21.70;67.42
82395;BME280;72031;51.786;4.662;2023-09-18T12:32:30;100460.34;;;21.69;66.60
82395;BME280;72031;51.786;4.662;2023-09-18T12:34:58;100457.25;;;21.86;67.71
82395;BME280;72031;51.786;4.662;2023-09-18T12:37:24;100454.53;;;21.86;66.10
82395;BME280;72031;51.786;4.662;2023-09-18T12:39:50;100448.91;;;21.73;67.34
82395;BME280;72031;51.786;4.662;2023-09-18T12:42:20;100443.19;;;21.68;67.74
82395;BME280;72031;51.786;4.662;2023-09-18T12:44:49;100441.19;;;21.91;66.55
82395;BME280;72031;51.786;4.662;2023-09-18T12:47:16;100445.97;;;22.04;66.82
82395;BME280;72031;51.786;4.662;2023-09-18T12:49:41;100434.84;;;21.84;66.49
82395;BME280;72031;51.786;4.662;2023-09-18T12:52:07;100436.53;;;21.85;66.85
82395;BME280;72031;51.786;4.662;2023-09-18T12:54:43;100433.88;;;21.92;67.72
82395;BME280;72031;51.786;4.662;2023-09-18T12:57:14;100428.72;;;21.97;66.55
82395;BME280;72031;51.786;4.662;2023-09-18T12:59:40;100428.41;;;22.07;67.84
82395;BME280;72031;51.786;4.662;2023-09-18T13:02:06;100411.28;;;22.06;66.09